createdAt,value
2022-10-19T00:01:56.661Z,7.50
2022-10-19T00:04:58.512Z,5.57
2022-10-19T00:08:01.983Z,8.87
2022-10-19T00:11:03.925Z,10.20
2022-10-19T00:14:07.374Z,5.73
2022-10-19T00:17:09.194Z,6.50
2022-10-19T00:20:12.634Z,6.97
2022-10-19T00:23:15.305Z,6.77
2022-10-19T00:26:17.424Z,9.20
2022-10-19T00:29:19.419Z,6.90
2022-10-19T00:32:21.388Z,13.13
2022-10-19T00:35:23.354Z,10.27
2022-10-19T00:38:25.707Z,8.53
2022-10-19T00:41:33.766Z,9.80
2022-10-19T00:44:35.729Z,7.47
2022-10-19T00:47:37.626Z,13.57
2022-10-19T00:50:40.108Z,8.07
2022-10-19T00:53:42.411Z,7.23
2022-10-19T00:56:46.362Z,11.37
2022-10-19T00:59:48.579Z,8.37
2022-10-19T01:02:50.526Z,9.47
2022-10-19T01:05:52.632Z,9.50
2022-10-19T01:08:55.621Z,7.37
2022-10-19T01:12:03.937Z,7.17
2022-10-19T01:15:21.321Z,8.83
2022-10-19T01:18:43.437Z,7.87
2022-10-19T01:22:36.279Z,9.00
2022-10-19T01:25:56.190Z,8.50
2022-10-19T01:29:23.221Z,9.93
2022-10-19T01:32:39.272Z,7.10
2022-10-19T01:35:53.647Z,6.53
2022-10-19T01:39:16.608Z,11.73
2022-10-19T01:42:42.616Z,17.10
2022-10-19T01:45:55.814Z,19.40
2022-10-19T01:49:19.259Z,14.10
2022-10-19T01:52:22.175Z,17.63
2022-10-19T01:55:25.414Z,16.93
2022-10-19T01:58:31.820Z,16.93
2022-10-19T02:01:36.224Z,22.93
2022-10-19T02:04:38.751Z,20.13
2022-10-19T02:07:42.255Z,18.50
2022-10-19T02:10:45.481Z,17.70
2022-10-19T02:13:51.577Z,11.17
2022-10-19T02:16:59.963Z,14.37
2022-10-19T02:20:02.631Z,12.00
2022-10-19T02:23:07.778Z,13.27
2022-10-19T02:26:09.965Z,8.97
2022-10-19T02:29:14.744Z,7.00
2022-10-19T02:32:16.623Z,11.70
2022-10-19T02:35:19.067Z,7.67
2022-10-19T02:38:23.038Z,9.40
2022-10-19T02:41:31.358Z,7.73
2022-10-19T02:44:53.830Z,9.43
2022-10-19T02:48:01.687Z,10.80
2022-10-19T02:51:03.777Z,10.07
2022-10-19T02:54:07.792Z,7.00
2022-10-19T02:57:18.432Z,7.37
2022-10-19T03:00:20.447Z,7.83
2022-10-19T03:03:22.652Z,7.00
2022-10-19T03:06:24.613Z,8.27
2022-10-19T03:09:26.618Z,10.57
2022-10-19T03:12:28.479Z,6.73
2022-10-19T03:15:30.756Z,7.33
2022-10-19T03:18:32.650Z,7.97
2022-10-19T03:21:35.239Z,6.60
2022-10-19T03:24:37.139Z,6.53
2022-10-19T03:27:39.087Z,11.57
2022-10-19T03:30:40.972Z,5.50
2022-10-19T03:33:42.893Z,6.87
2022-10-19T03:36:44.895Z,8.17
2022-10-19T03:39:46.789Z,6.73
2022-10-19T03:42:48.667Z,8.27
2022-10-19T03:45:50.580Z,5.67
2022-10-19T03:48:52.704Z,6.63
2022-10-19T03:51:54.674Z,9.60
2022-10-19T03:54:56.559Z,5.97
2022-10-19T03:57:58.677Z,10.77
2022-10-19T04:01:00.783Z,7.97
2022-10-19T04:04:06.457Z,14.40
2022-10-19T04:07:08.384Z,86.00
2022-10-19T04:10:10.310Z,93.50
2022-10-19T04:13:12.636Z,7.80
2022-10-19T04:16:14.601Z,7.83
2022-10-19T04:19:16.916Z,7.97
2022-10-19T04:22:18.868Z,11.83
2022-10-19T04:25:20.915Z,11.73
2022-10-19T04:28:22.820Z,8.80
2022-10-19T04:31:24.926Z,9.33
2022-10-19T04:34:26.944Z,10.40
2022-10-19T04:37:28.841Z,12.60
2022-10-19T04:40:30.852Z,10.30
2022-10-19T04:43:33.044Z,7.80
2022-10-19T04:46:35.561Z,8.93
2022-10-19T04:49:37.461Z,12.30
2022-10-19T04:52:39.716Z,12.57
2022-10-19T04:55:42.938Z,7.77
2022-10-19T04:58:45.205Z,7.37
2022-10-19T05:01:47.528Z,12.37
2022-10-19T05:04:49.568Z,9.40
2022-10-19T05:07:51.366Z,8.30
2022-10-19T05:10:53.325Z,10.70
2022-10-19T05:13:56.562Z,10.77
2022-10-19T05:16:58.619Z,12.60
2022-10-19T05:20:00.441Z,14.53
2022-10-19T05:23:06.283Z,12.83
2022-10-19T05:26:10.420Z,11.50
2022-10-19T05:29:13.705Z,20.27
2022-10-19T05:32:15.633Z,35.60
2022-10-19T05:35:20.066Z,9.27
2022-10-19T05:38:24.574Z,12.30
2022-10-19T05:41:27.255Z,5.37
2022-10-19T05:44:29.229Z,10.87
2022-10-19T05:47:31.312Z,4.93
2022-10-19T05:50:33.491Z,7.17
2022-10-19T05:53:35.774Z,8.03
2022-10-19T05:56:37.947Z,7.33
2022-10-19T05:59:39.789Z,6.00
2022-10-19T06:02:42.289Z,6.77
2022-10-19T06:05:44.222Z,7.73
2022-10-19T06:08:46.950Z,8.20
2022-10-19T06:11:48.990Z,8.87
2022-10-19T06:14:51.367Z,10.43
2022-10-19T06:17:53.325Z,7.97
2022-10-19T06:20:55.595Z,11.90
2022-10-19T06:23:59.880Z,11.97
2022-10-19T06:27:01.925Z,13.90
2022-10-19T06:30:04.186Z,17.40
2022-10-19T06:33:06.527Z,16.67
2022-10-19T06:36:19.785Z,18.60
2022-10-19T06:39:21.675Z,9.93
2022-10-19T06:42:23.616Z,9.67
2022-10-19T06:45:25.426Z,13.77
2022-10-19T06:48:27.606Z,10.97
2022-10-19T06:51:31.221Z,12.90
2022-10-19T06:54:33.230Z,11.03
2022-10-19T06:57:35.735Z,15.07
2022-10-19T07:00:37.944Z,10.93
2022-10-19T07:03:40.656Z,14.27
2022-10-19T07:06:43.141Z,10.27
2022-10-19T07:09:45.107Z,10.13
2022-10-19T07:12:47.111Z,11.47
2022-10-19T07:15:49.257Z,11.30
2022-10-19T07:18:53.477Z,12.40
2022-10-19T07:21:55.381Z,10.23
2022-10-19T07:24:58.642Z,11.33
2022-10-19T07:28:01.121Z,10.47
2022-10-19T07:31:11.457Z,15.57
2022-10-19T07:34:14.576Z,16.73
2022-10-19T07:37:16.536Z,14.97
2022-10-19T07:40:18.379Z,13.73
2022-10-19T07:43:20.307Z,14.40
2022-10-19T07:46:25.692Z,12.67
2022-10-19T07:49:28.593Z,15.80
2022-10-19T07:52:33.029Z,13.83
2022-10-19T07:55:37.756Z,11.90
2022-10-19T07:58:40.866Z,14.83
2022-10-19T08:01:44.630Z,9.40
2022-10-19T08:05:05.234Z,13.77
2022-10-19T08:08:10.185Z,10.43
2022-10-19T08:11:15.496Z,9.10
2022-10-19T08:14:17.473Z,9.87
2022-10-19T08:17:19.433Z,7.43
2022-10-19T08:20:21.617Z,8.60
2022-10-19T08:23:23.502Z,11.47
2022-10-19T08:26:28.651Z,10.43
2022-10-19T08:29:31.615Z,13.83
2022-10-19T08:32:34.245Z,12.27
2022-10-19T08:35:37.136Z,11.63
2022-10-19T08:38:39.881Z,6.07
2022-10-19T08:41:44.755Z,7.57
2022-10-19T08:45:12.999Z,12.03
2022-10-19T08:48:20.416Z,11.40
2022-10-19T08:51:22.906Z,13.93
2022-10-19T08:54:25.488Z,11.67
2022-10-19T08:57:51.323Z,16.83
2022-10-19T09:01:00.808Z,17.40
2022-10-19T09:04:11.096Z,19.17
2022-10-19T09:07:25.754Z,19.90
2022-10-19T09:10:31.537Z,16.83
2022-10-19T09:13:41.579Z,13.43
2022-10-19T09:17:00.681Z,12.95
2022-10-19T09:20:19.055Z,15.20
2022-10-19T09:23:32.249Z,18.80
2022-10-19T09:26:38.191Z,15.20
2022-10-19T09:29:57.447Z,16.93
2022-10-19T09:33:00.977Z,19.27
2022-10-19T09:36:05.621Z,17.13
2022-10-19T09:39:07.534Z,21.87
2022-10-19T09:42:30.626Z,25.43
2022-10-19T09:45:53.155Z,20.23
2022-10-19T09:48:55.641Z,28.23
2022-10-19T09:51:57.443Z,27.23
2022-10-19T09:55:03.337Z,30.00
2022-10-19T09:58:14.239Z,25.63
2022-10-19T10:01:41.527Z,29.50
2022-10-19T10:04:56.656Z,27.30
2022-10-19T10:07:58.638Z,30.70
2022-10-19T10:11:16.636Z,27.10
2022-10-19T10:14:27.702Z,24.80
2022-10-19T10:17:30.791Z,29.23
2022-10-19T10:20:33.246Z,27.30
2022-10-19T10:23:36.847Z,32.17
2022-10-19T10:26:41.502Z,24.77
2022-10-19T10:33:13.449Z,21.40
2022-10-19T10:36:28.277Z,16.83
2022-10-19T10:39:30.861Z,20.30
2022-10-19T10:42:36.987Z,19.50
2022-10-19T10:45:45.634Z,19.47
2022-10-19T10:48:59.716Z,17.27
2022-10-19T10:52:05.787Z,17.13
2022-10-19T10:55:10.663Z,16.87
2022-10-19T10:58:17.591Z,19.73
2022-10-19T11:01:24.372Z,16.00
2022-10-19T11:04:30.591Z,16.10
2022-10-19T11:07:36.341Z,13.13
2022-10-19T11:11:06.635Z,17.23
2022-10-19T11:14:29.547Z,19.60
2022-10-19T11:17:34.944Z,18.53
2022-10-19T11:20:43.016Z,17.40
2022-10-19T11:23:54.588Z,17.60
2022-10-19T11:27:03.932Z,19.50
2022-10-19T11:30:15.949Z,18.10
2022-10-19T11:33:45.960Z,18.13
2022-10-19T11:37:00.347Z,20.47
2022-10-19T11:40:14.221Z,16.73
2022-10-19T11:43:26.337Z,16.10
2022-10-19T11:46:43.042Z,18.10
2022-10-19T11:50:32.701Z,15.80
2022-10-19T11:54:00.473Z,18.33
2022-10-19T11:57:11.870Z,18.57
2022-10-19T12:00:39.042Z,17.33
2022-10-19T12:04:06.932Z,15.77
2022-10-19T12:07:20.461Z,15.70
2022-10-19T12:10:34.663Z,14.27
2022-10-19T12:13:48.971Z,17.20
2022-10-19T12:16:55.008Z,14.30
2022-10-19T12:20:02.734Z,15.53
2022-10-19T12:23:29.560Z,14.40
2022-10-19T12:26:36.016Z,14.10
2022-10-19T12:29:41.332Z,16.87
2022-10-19T12:33:21.482Z,17.87
2022-10-19T12:36:27.431Z,14.27
2022-10-19T12:39:50.079Z,16.30
2022-10-19T12:43:12.123Z,17.87
2022-10-19T12:46:49.868Z,15.57
2022-10-19T12:49:56.078Z,16.63
2022-10-19T12:52:57.967Z,19.83
2022-10-19T12:56:06.872Z,16.40
2022-10-19T12:59:24.291Z,13.88
2022-10-19T13:02:30.623Z,17.90
2022-10-19T13:05:33.573Z,16.90
2022-10-19T13:08:54.876Z,18.55
2022-10-19T13:12:19.371Z,15.23
2022-10-19T13:15:51.740Z,16.92
2022-10-19T13:18:59.691Z,14.73
2022-10-19T13:22:02.134Z,16.17
2022-10-19T13:25:24.342Z,14.97
2022-10-19T13:28:37.712Z,15.55
2022-10-19T13:31:39.932Z,14.55
2022-10-19T13:34:41.806Z,16.58
2022-10-19T13:37:43.826Z,17.52
2022-10-19T13:40:54.878Z,20.83
2022-10-19T13:44:03.748Z,18.70
2022-10-19T13:47:15.278Z,15.65
2022-10-19T13:50:17.131Z,11.13
2022-10-19T13:53:35.365Z,14.13
2022-10-19T13:56:55.629Z,14.02
2022-10-19T14:00:15.608Z,15.23
2022-10-19T14:03:36.169Z,14.23
2022-10-19T14:06:58.266Z,16.88
2022-10-19T14:10:25.085Z,13.55
2022-10-19T14:13:34.602Z,12.05
2022-10-19T14:16:56.078Z,14.45
2022-10-19T14:20:01.121Z,15.57
2022-10-19T14:23:24.873Z,14.77
2022-10-19T14:26:31.662Z,14.77
2022-10-19T14:29:48.706Z,16.10
2022-10-19T14:32:51.477Z,23.13
2022-10-19T14:35:54.057Z,14.70
2022-10-19T14:38:56.724Z,15.05
2022-10-19T14:42:06.623Z,11.95
2022-10-19T14:45:31.739Z,13.43
2022-10-19T14:48:39.209Z,11.82
2022-10-19T14:51:48.973Z,11.02
2022-10-19T14:54:52.375Z,16.50
2022-10-19T14:57:54.657Z,14.02
2022-10-19T15:00:56.734Z,13.88
2022-10-19T15:03:58.656Z,21.20
2022-10-19T15:07:04.022Z,18.73
2022-10-19T15:10:09.111Z,17.05
2022-10-19T15:13:28.513Z,20.20
2022-10-19T15:16:35.574Z,15.63
2022-10-19T15:19:41.494Z,12.20
2022-10-19T15:22:44.072Z,15.48
2022-10-19T15:25:45.876Z,12.65
2022-10-19T15:28:48.866Z,14.03
2022-10-19T15:31:51.034Z,14.33
2022-10-19T15:34:52.954Z,9.90
2022-10-19T15:38:23.508Z,13.40
2022-10-19T15:41:34.957Z,12.80
2022-10-19T15:44:44.151Z,11.17
2022-10-19T15:48:11.542Z,10.63
2022-10-19T15:51:28.863Z,14.93
2022-10-19T15:54:30.747Z,14.33
2022-10-19T15:57:35.859Z,11.67
2022-10-19T16:00:38.608Z,10.97
2022-10-19T16:03:40.417Z,11.60
2022-10-19T16:06:44.374Z,18.63
2022-10-19T16:09:46.322Z,12.33
2022-10-19T16:12:48.561Z,20.13
2022-10-19T16:16:01.276Z,11.37
2022-10-19T16:19:13.446Z,11.53
2022-10-19T16:22:15.520Z,14.83
2022-10-19T16:25:18.011Z,15.37
2022-10-19T16:28:19.973Z,13.23
2022-10-19T16:31:22.539Z,13.07
2022-10-19T16:34:24.654Z,15.17
2022-10-19T16:37:26.573Z,14.50
2022-10-19T16:40:28.666Z,11.40
2022-10-19T16:43:31.036Z,13.93
2022-10-19T16:46:32.863Z,11.03
2022-10-19T16:49:34.703Z,15.30
2022-10-19T16:52:36.824Z,16.00
2022-10-19T16:55:40.844Z,20.83
2022-10-19T16:58:42.621Z,14.67
2022-10-19T17:01:45.623Z,14.87
2022-10-19T17:04:47.538Z,14.03
2022-10-19T17:07:49.387Z,15.27
2022-10-19T17:10:51.203Z,23.77
2022-10-19T17:13:55.221Z,17.67
2022-10-19T17:16:57.993Z,16.43
2022-10-19T17:19:59.859Z,13.90
2022-10-19T17:23:01.800Z,19.73
2022-10-19T17:26:04.660Z,14.73
2022-10-19T17:29:06.998Z,14.80
2022-10-19T17:32:09.247Z,13.83
2022-10-19T17:35:11.094Z,13.93
2022-10-19T17:38:13.466Z,17.20
2022-10-19T17:41:17.664Z,13.40
2022-10-19T17:44:22.388Z,14.50
2022-10-19T17:47:24.306Z,15.47
2022-10-19T17:50:27.242Z,16.17
2022-10-19T17:53:30.515Z,15.40
2022-10-19T17:56:32.655Z,13.47
2022-10-19T17:59:46.642Z,14.43
2022-10-19T18:02:54.581Z,19.27
2022-10-19T18:06:01.023Z,17.07
2022-10-19T18:09:05.837Z,16.70
2022-10-19T18:12:13.512Z,13.93
2022-10-19T18:15:16.576Z,11.70
2022-10-19T18:18:19.649Z,13.67
2022-10-19T18:21:25.553Z,12.90
2022-10-19T18:24:27.974Z,17.60
2022-10-19T18:27:30.232Z,14.37
2022-10-19T18:30:42.362Z,13.93
2022-10-19T18:33:49.031Z,14.40
2022-10-19T18:36:51.412Z,13.57
2022-10-19T18:39:53.445Z,15.60
2022-10-19T18:42:55.532Z,14.73
2022-10-19T18:45:59.425Z,12.47
2022-10-19T18:49:01.778Z,13.63
2022-10-19T18:52:03.956Z,10.23
2022-10-19T18:55:06.592Z,10.87
2022-10-19T18:58:09.109Z,9.63
2022-10-19T19:01:19.780Z,10.77
2022-10-19T19:04:21.938Z,16.50
2022-10-19T19:07:24.221Z,15.07
2022-10-19T19:10:27.396Z,16.80
2022-10-19T19:13:29.430Z,15.30
2022-10-19T19:16:36.901Z,11.87
2022-10-19T19:19:40.142Z,11.90
2022-10-19T19:22:44.267Z,9.53
2022-10-19T19:25:47.248Z,12.83
2022-10-19T19:28:51.571Z,10.13
2022-10-19T19:31:53.793Z,10.87
2022-10-19T19:34:55.881Z,8.13
2022-10-19T19:37:57.711Z,8.70
2022-10-19T19:41:00.484Z,13.47
2022-10-19T19:44:02.892Z,13.60
2022-10-19T19:47:06.357Z,8.93
2022-10-19T19:50:10.101Z,13.37
2022-10-19T19:53:12.129Z,8.57
2022-10-19T19:56:15.201Z,13.07
2022-10-19T19:59:18.955Z,9.27
2022-10-19T20:02:21.933Z,8.00
2022-10-19T20:05:25.256Z,7.23
2022-10-19T20:08:27.189Z,6.30
2022-10-19T20:11:29.577Z,12.47
2022-10-19T20:14:31.608Z,10.43
2022-10-19T20:17:34.203Z,8.30
2022-10-19T20:20:37.421Z,8.47
2022-10-19T20:23:40.050Z,8.47
2022-10-19T20:26:46.185Z,10.60
2022-10-19T20:29:48.741Z,14.53
2022-10-19T20:32:54.432Z,12.03
2022-10-19T20:35:56.336Z,9.50
2022-10-19T20:38:58.946Z,9.37
2022-10-19T20:42:01.038Z,10.00
2022-10-19T20:45:02.966Z,14.67
2022-10-19T20:48:05.650Z,10.20
2022-10-19T20:51:13.096Z,9.87
2022-10-19T20:54:14.932Z,9.87
2022-10-19T20:57:16.731Z,11.70
2022-10-19T21:00:18.947Z,11.53
2022-10-19T21:03:22.156Z,10.20
2022-10-19T21:06:25.477Z,10.83
2022-10-19T21:09:27.409Z,8.57
2022-10-19T21:12:29.691Z,13.80
2022-10-19T21:15:31.496Z,15.33
2022-10-19T21:18:33.401Z,10.30
2022-10-19T21:21:38.267Z,11.70
2022-10-19T21:24:40.494Z,9.47
2022-10-19T21:27:42.400Z,10.87
2022-10-19T21:30:44.258Z,7.90
2022-10-19T21:33:46.297Z,8.93
2022-10-19T21:36:48.698Z,9.30
2022-10-19T21:39:50.506Z,7.67
2022-10-19T21:42:55.128Z,11.60
2022-10-19T21:46:07.171Z,9.00
2022-10-19T21:49:12.522Z,15.30
2022-10-19T21:52:16.188Z,9.53
2022-10-19T21:55:18.146Z,10.77
2022-10-19T21:58:23.490Z,10.90
2022-10-19T22:01:27.670Z,10.27
2022-10-19T22:04:29.589Z,10.67
2022-10-19T22:07:32.022Z,9.77
2022-10-19T22:10:33.942Z,11.40
2022-10-19T22:13:37.463Z,7.70
2022-10-19T22:16:40.144Z,6.97
2022-10-19T22:19:42.006Z,10.23
2022-10-19T22:22:43.783Z,7.90
2022-10-19T22:25:45.742Z,10.73
2022-10-19T22:28:48.026Z,7.07
2022-10-19T22:31:49.941Z,9.87
2022-10-19T22:34:51.787Z,7.63
2022-10-19T22:37:53.707Z,10.57
2022-10-19T22:40:55.595Z,8.73
2022-10-19T22:43:57.533Z,16.27
2022-10-19T22:46:59.353Z,8.30
2022-10-19T22:50:01.256Z,11.30
2022-10-19T22:53:03.067Z,14.20
2022-10-19T22:56:05.801Z,8.13
2022-10-19T22:59:08.297Z,12.27
2022-10-19T23:02:10.218Z,10.50
2022-10-19T23:05:12.084Z,10.60
2022-10-19T23:08:14.573Z,6.53
2022-10-19T23:11:16.733Z,9.27
2022-10-19T23:14:18.609Z,6.53
2022-10-19T23:17:20.532Z,7.20
2022-10-19T23:20:22.541Z,12.83
2022-10-19T23:23:25.154Z,6.80
2022-10-19T23:26:27.144Z,10.83
2022-10-19T23:29:28.993Z,7.27
2022-10-19T23:32:30.837Z,7.23
2022-10-19T23:35:32.657Z,6.23
2022-10-19T23:38:35.722Z,7.00
2022-10-19T23:41:37.687Z,12.87
2022-10-19T23:44:39.583Z,9.30
2022-10-19T23:47:41.927Z,8.93
2022-10-19T23:50:43.827Z,9.53
2022-10-19T23:53:47.331Z,5.77
2022-10-19T23:56:49.234Z,9.97
2022-10-19T23:59:51.114Z,10.20
